EJU78E EHAM-EDDS
Flight info
| Callsign | EJU78E |
|---|---|
| Flight time | N/A |
| Altitude | 35000 |
| Route | RENDI2N EDUPO Z739 MISGO DCT TIVUN DCT DODEN DCT FFM DCT UBENO N850 KRH T128 BADSO BADSO2A |
| Aircraft | A320/M-SDE3FGHIRWY/LB1 |
Departure
| Time | 2026-04-28 15:04 |
|---|---|
| Airport | Amsterdam Airport Schiphol (EHAM) |
Arrival
| Time | N/A |
|---|---|
| Airport | Stuttgart Airport (EDDS) |
| Time | Latitude | Longitude | Altitude | Speed | Heading |
|---|---|---|---|---|---|
| 2026-04-28 14:35 | 52.31009 | 4.75405 | -1 ft | 0 kts | 148° |
| 2026-04-28 14:51 | 52.31015 | 4.75398 | -1 ft | 4 kts | 148° |
| 2026-04-28 14:51 | 52.31038 | 4.75375 | -1 ft | 4 kts | 135° |
| 2026-04-28 14:51 | 52.31047 | 4.75351 | -1 ft | 3 kts | 56° |
| 2026-04-28 14:52 | 52.31037 | 4.75325 | -1 ft | 3 kts | 58° |
| 2026-04-28 14:52 | 52.31028 | 4.75301 | -1 ft | 0 kts | 58° |
| 2026-04-28 14:54 | 52.31044 | 4.75344 | -1 ft | 11 kts | 58° |
| 2026-04-28 14:55 | 52.31094 | 4.75470 | -1 ft | 15 kts | 47° |
| 2026-04-28 14:55 | 52.31142 | 4.75492 | -1 ft | 0 kts | 345° |
| 2026-04-28 14:55 | 52.31189 | 4.75469 | -1 ft | 14 kts | 348° |
| 2026-04-28 14:55 | 52.31284 | 4.75455 | -1 ft | 13 kts | 357° |
| 2026-04-28 14:56 | 52.31352 | 4.75448 | -1 ft | 0 kts | 357° |
| 2026-04-28 14:58 | 52.31377 | 4.75446 | -1 ft | 12 kts | 359° |
| 2026-04-28 14:58 | 52.31420 | 4.75300 | -1 ft | 16 kts | 265° |
| 2026-04-28 14:58 | 52.31415 | 4.75124 | -1 ft | 15 kts | 266° |
| 2026-04-28 14:58 | 52.31413 | 4.75066 | -1 ft | 7 kts | 267° |
| 2026-04-28 14:59 | 52.31407 | 4.74883 | -1 ft | 15 kts | 268° |
| 2026-04-28 14:59 | 52.31406 | 4.74840 | -1 ft | 1 kts | 267° |
| 2026-04-28 14:59 | 52.31414 | 4.74704 | -1 ft | 15 kts | 303° |
| 2026-04-28 14:59 | 52.31503 | 4.74669 | -1 ft | 10 kts | 356° |
| 2026-04-28 15:00 | 52.31508 | 4.74668 | -1 ft | 0 kts | 356° |
| 2026-04-28 15:00 | 52.31510 | 4.74668 | -1 ft | 2 kts | 356° |
| 2026-04-28 15:01 | 52.31556 | 4.74663 | -1 ft | 1 kts | 356° |
| 2026-04-28 15:01 | 52.31558 | 4.74663 | -1 ft | 0 kts | 356° |
| 2026-04-28 15:02 | 52.31565 | 4.74663 | -1 ft | 7 kts | 356° |
| 2026-04-28 15:02 | 52.31666 | 4.74748 | 0 ft | 20 kts | 76° |
| 2026-04-28 15:02 | 52.31670 | 4.74850 | -2 ft | 1 kts | 86° |
| 2026-04-28 15:03 | 52.31671 | 4.74872 | -2 ft | 5 kts | 86° |
| 2026-04-28 15:03 | 52.31683 | 4.75240 | -2 ft | 68 kts | 86° |
| 2026-04-28 15:03 | 52.31722 | 4.76366 | -1 ft | 128 kts | 86° |
| 2026-04-28 15:03 | 52.31785 | 4.78050 | 145 ft | 164 kts | 83° |
| 2026-04-28 15:04 | 52.31846 | 4.80042 | 537 ft | 186 kts | 83° |
| 2026-04-28 15:04 | 52.31894 | 4.82213 | 1186 ft | 196 kts | 85° |
| 2026-04-28 15:04 | 52.31913 | 4.84530 | 1893 ft | 211 kts | 86° |
| 2026-04-28 15:04 | 52.31807 | 4.86930 | 2891 ft | 211 kts | 101° |
| 2026-04-28 15:05 | 52.31222 | 4.89138 | 3880 ft | 216 kts | 111° |
| 2026-04-28 15:05 | 52.30623 | 4.91446 | 4623 ft | 225 kts | 109° |
| 2026-04-28 15:05 | 52.30048 | 4.93816 | 5577 ft | 223 kts | 110° |
| 2026-04-28 15:05 | 52.29485 | 4.96180 | 6608 ft | 222 kts | 106° |
| 2026-04-28 15:06 | 52.29101 | 4.98592 | 7600 ft | 217 kts | 103° |
| 2026-04-28 15:06 | 52.28719 | 5.00940 | 8624 ft | 210 kts | 104° |
| 2026-04-28 15:06 | 52.28319 | 5.03310 | 9298 ft | 222 kts | 104° |
| 2026-04-28 15:06 | 52.27890 | 5.05811 | 9970 ft | 235 kts | 104° |
| 2026-04-28 15:07 | 52.27433 | 5.08462 | 10615 ft | 249 kts | 104° |
| 2026-04-28 15:07 | 52.26946 | 5.11254 | 11238 ft | 262 kts | 105° |
| 2026-04-28 15:07 | 52.26368 | 5.14141 | 11846 ft | 274 kts | 115° |
| 2026-04-28 15:07 | 52.25314 | 5.16815 | 12506 ft | 286 kts | 122° |
| 2026-04-28 15:08 | 52.24148 | 5.19513 | 13165 ft | 296 kts | 124° |
| 2026-04-28 15:08 | 52.22932 | 5.22286 | 13838 ft | 305 kts | 123° |
| 2026-04-28 15:08 | 52.21680 | 5.25125 | 14462 ft | 312 kts | 123° |
| 2026-04-28 15:08 | 52.20397 | 5.28026 | 15063 ft | 319 kts | 124° |
| 2026-04-28 15:09 | 52.19087 | 5.30984 | 15701 ft | 324 kts | 123° |
| 2026-04-28 15:09 | 52.17758 | 5.33984 | 16342 ft | 329 kts | 123° |
| 2026-04-28 15:09 | 52.16409 | 5.37029 | 16964 ft | 334 kts | 123° |
| 2026-04-28 15:09 | 52.15502 | 5.39081 | 17319 ft | 340 kts | 124° |
| 2026-04-28 15:10 | 52.13632 | 5.43317 | 18039 ft | 350 kts | 123° |
| 2026-04-28 15:10 | 52.12196 | 5.46564 | 18574 ft | 356 kts | 123° |
| 2026-04-28 15:10 | 52.11230 | 5.48743 | 18894 ft | 361 kts | 124° |
| 2026-04-28 15:10 | 52.09750 | 5.52073 | 19362 ft | 366 kts | 123° |
| 2026-04-28 15:11 | 52.08244 | 5.55453 | 19862 ft | 372 kts | 124° |
| 2026-04-28 15:11 | 52.06714 | 5.58883 | 20360 ft | 377 kts | 124° |
| 2026-04-28 15:11 | 52.05165 | 5.62348 | 20866 ft | 381 kts | 123° |
| 2026-04-28 15:11 | 52.03601 | 5.65851 | 21384 ft | 384 kts | 124° |
| 2026-04-28 15:12 | 52.02028 | 5.69379 | 21904 ft | 388 kts | 123° |
| 2026-04-28 15:12 | 52.00438 | 5.72936 | 22439 ft | 390 kts | 124° |
| 2026-04-28 15:12 | 51.98837 | 5.76510 | 22981 ft | 392 kts | 124° |
| 2026-04-28 15:12 | 51.97228 | 5.80098 | 23531 ft | 394 kts | 124° |
| 2026-04-28 15:13 | 51.95612 | 5.83697 | 24040 ft | 396 kts | 123° |
| 2026-04-28 15:13 | 51.93989 | 5.87305 | 24517 ft | 397 kts | 123° |
| 2026-04-28 15:13 | 51.92358 | 5.90923 | 24985 ft | 398 kts | 123° |